Time;durP1;ratioP1;P1;durP2;ratioP2;P2;SDS_P1;SDS_P2;PMS_P1;PMS_P2;Temp;Humidity;BMP_temperature;BMP_pressure;BME280_temperature;BME280_humidity;BME280_pressure;Samples;Min_cycle;Max_cycle;Signal;HPM_P1;HPM_P2
2022/05/01 00:01:37;;;;;;;30.95;24.35;;;;;;;;;;5058454;28;20055;-86
2022/05/01 00:04:05;;;;;;;34.83;24.08;;;;;;;;;;5057513;28;20048;-86
2022/05/01 00:06:33;;;;;;;33.67;22.88;;;;;;;;;;5074522;28;20495;-84
2022/05/01 00:09:01;;;;;;;30.88;23.70;;;;;;;;;;5057210;28;20087;-86
2022/05/01 00:11:30;;;;;;;35.45;24.38;;;;;;;;;;5057623;28;20109;-84
2022/05/01 00:13:57;;;;;;;33.08;25.05;;;;;;;;;;5058722;28;20084;-85
2022/05/01 00:16:25;;;;;;;32.30;24.35;;;;;;;;;;5057762;28;20094;-85
2022/05/01 00:18:55;;;;;;;34.88;25.15;;;;;;;;;;5074997;28;20406;-85
2022/05/01 00:21:31;;;;;;;32.60;24.08;;;;;;;;;;5075163;28;20570;-85
2022/05/01 00:23:59;;;;;;;32.45;24.58;;;;;;;;;;5057507;28;20139;-85
2022/05/01 00:26:26;;;;;;;36.75;25.38;;;;;;;;;;5074217;28;20044;-86
2022/05/01 00:32:15;;;;;;;29.95;24.25;;;;;;;;;;5074872;28;20073;-86
2022/05/01 00:38:05;;;;;;;32.80;25.27;;;;;;;;;;5075335;28;20115;-85
2022/05/01 00:40:38;;;;;;;34.15;25.38;;;;;;;;;;5053997;28;20075;-86
2022/05/01 00:43:05;;;;;;;34.40;23.65;;;;;;;;;;5056548;28;20143;-86
2022/05/01 00:45:33;;;;;;;31.27;24.33;;;;;;;;;;5055923;28;20565;-86
2022/05/01 00:48:01;;;;;;;32.70;26.58;;;;;;;;;;5056330;28;20127;-85
2022/05/01 00:50:28;;;;;;;29.48;24.65;;;;;;;;;;5056626;28;20078;-86
2022/05/01 00:52:55;;;;;;;31.80;25.05;;;;;;;;;;5056305;28;20048;-85
2022/05/01 00:58:46;;;;;;;34.35;24.38;;;;;;;;;;5073957;28;20089;-86
2022/05/01 01:01:14;;;;;;;40.65;25.60;;;;;;;;;;5057454;28;20045;-86
2022/05/01 01:03:56;;;;;;;33.83;24.20;;;;;;;;;;5057425;28;20044;-86
2022/05/01 01:06:24;;;;;;;31.05;25.77;;;;;;;;;;5055788;28;20067;-86
2022/05/01 01:08:51;;;;;;;30.65;24.50;;;;;;;;;;5055777;28;20441;-86
2022/05/01 01:11:18;;;;;;;36.25;25.95;;;;;;;;;;5056044;28;20105;-86
2022/05/01 01:17:14;;;;;;;28.20;23.50;;;;;;;;;;5073819;28;20028;-86
2022/05/01 01:19:58;;;;;;;34.42;24.27;;;;;;;;;;5055421;28;20549;-86
2022/05/01 01:22:25;;;;;;;35.97;22.10;;;;;;;;;;5055783;28;20103;-86
2022/05/01 01:25:05;;;;;;;31.10;24.60;;;;;;;;;;5056237;28;20485;-86
2022/05/01 01:27:43;;;;;;;30.92;23.90;;;;;;;;;;5056575;28;20107;-84
2022/05/01 01:33:15;;;;;;;32.05;25.70;;;;;;;;;;5073486;28;20505;-87
2022/05/01 01:36:03;;;;;;;34.88;26.88;;;;;;;;;;5055727;28;20056;-87
2022/05/01 01:41:44;;;;;;;33.53;25.58;;;;;;;;;;5073398;28;20135;-87
2022/05/01 01:44:12;;;;;;;32.53;25.10;;;;;;;;;;5055863;28;20076;-87
2022/05/01 01:46:40;;;;;;;46.17;28.02;;;;;;;;;;5055685;28;20513;-87
2022/05/01 01:49:18;;;;;;;37.83;26.73;;;;;;;;;;5055887;28;20049;-86
2022/05/01 01:51:46;;;;;;;38.72;26.80;;;;;;;;;;5055917;28;20139;-87
2022/05/01 01:54:13;;;;;;;40.08;26.63;;;;;;;;;;5055536;28;20586;-87
2022/05/01 01:56:42;;;;;;;40.85;27.25;;;;;;;;;;5055742;28;20114;-86
2022/05/01 01:59:42;;;;;;;33.83;23.73;;;;;;;;;;5055601;28;20080;-86
2022/05/01 02:02:09;;;;;;;34.08;25.02;;;;;;;;;;5055585;28;20102;-87
2022/05/01 02:04:40;;;;;;;37.13;25.10;;;;;;;;;;5055319;28;20454;-86
2022/05/01 02:07:07;;;;;;;36.45;25.85;;;;;;;;;;5055335;28;20461;-87
2022/05/01 02:09:37;;;;;;;40.47;27.00;;;;;;;;;;5073077;28;20048;-87
2022/05/01 02:12:08;;;;;;;45.78;29.52;;;;;;;;;;5055293;28;20048;-87
2022/05/01 02:14:36;;;;;;;36.00;25.30;;;;;;;;;;5055303;28;20053;-87
2022/05/01 02:17:03;;;;;;;30.00;23.17;;;;;;;;;;5055311;28;20117;-87
2022/05/01 02:19:30;;;;;;;31.83;24.02;;;;;;;;;;5061139;28;20070;-87
2022/05/01 02:21:58;;;;;;;33.75;23.80;;;;;;;;;;5059806;28;20076;-87
2022/05/01 02:24:25;;;;;;;29.25;21.52;;;;;;;;;;5059086;28;20131;-87
2022/05/01 02:26:52;;;;;;;28.98;22.67;;;;;;;;;;5058820;28;20064;-87
2022/05/01 02:29:19;;;;;;;30.35;23.05;;;;;;;;;;5059094;28;20453;-86
2022/05/01 02:32:01;;;;;;;27.92;20.83;;;;;;;;;;5058745;28;20122;-87
2022/05/01 02:34:29;;;;;;;26.55;21.20;;;;;;;;;;5058790;28;20139;-86
2022/05/01 02:36:56;;;;;;;26.15;20.05;;;;;;;;;;5059488;28;20146;-87
2022/05/01 02:39:25;;;;;;;25.95;20.10;;;;;;;;;;5059037;28;20519;-86
2022/05/01 02:41:52;;;;;;;29.20;19.63;;;;;;;;;;5059050;28;20518;-86
2022/05/01 02:44:19;;;;;;;25.48;18.77;;;;;;;;;;5059993;28;20081;-85
2022/05/01 02:46:46;;;;;;;28.75;18.95;;;;;;;;;;5078526;28;20044;-86
2022/05/01 02:49:14;;;;;;;26.25;19.10;;;;;;;;;;5078967;28;20491;-86
2022/05/01 02:51:42;;;;;;;22.00;17.80;;;;;;;;;;5060720;28;20071;-85
2022/05/01 02:54:09;;;;;;;21.85;17.67;;;;;;;;;;5060134;28;20068;-86
2022/05/01 02:56:37;;;;;;;22.92;17.42;;;;;;;;;;5060277;28;20079;-85
2022/05/01 02:59:08;;;;;;;21.98;17.25;;;;;;;;;;5060073;28;20049;-85
2022/05/01 03:01:39;;;;;;;25.23;17.20;;;;;;;;;;5060459;28;20048;-85
2022/05/01 03:04:06;;;;;;;25.38;16.35;;;;;;;;;;5060005;28;20469;-85
2022/05/01 03:06:34;;;;;;;21.98;14.98;;;;;;;;;;5059567;28;20131;-85
2022/05/01 03:09:01;;;;;;;22.63;16.02;;;;;;;;;;5059565;28;20052;-85
2022/05/01 03:11:28;;;;;;;22.52;16.75;;;;;;;;;;5059102;28;20052;-84
2022/05/01 03:13:55;;;;;;;23.95;17.25;;;;;;;;;;5058974;28;20087;-85
2022/05/01 03:16:23;;;;;;;23.25;17.33;;;;;;;;;;5059219;28;20091;-85
2022/05/01 03:24:22;;;;;;;24.30;18.30;;;;;;;;;;5076477;28;20048;-85
2022/05/01 03:26:49;;;;;;;17.45;15.68;;;;;;;;;;5058178;28;20055;-85
2022/05/01 03:29:17;;;;;;;17.42;14.93;;;;;;;;;;5058216;28;20117;-84
2022/05/01 03:31:46;;;;;;;21.55;15.82;;;;;;;;;;5057987;28;20076;-85
2022/05/01 03:34:14;;;;;;;20.83;14.27;;;;;;;;;;5057897;28;20056;-83
2022/05/01 03:36:41;;;;;;;19.48;15.23;;;;;;;;;;5058271;28;20131;-84
2022/05/01 03:39:08;;;;;;;20.40;14.88;;;;;;;;;;5059461;28;20053;-83
2022/05/01 03:41:36;;;;;;;18.48;15.15;;;;;;;;;;5046982;28;20045;-85
2022/05/01 03:44:03;;;;;;;18.73;15.27;;;;;;;;;;5035341;28;20088;-85
2022/05/01 03:46:30;;;;;;;20.60;15.60;;;;;;;;;;5036304;28;20084;-84
2022/05/01 03:48:58;;;;;;;19.98;15.23;;;;;;;;;;5035176;28;20073;-85
2022/05/01 03:51:25;;;;;;;20.25;15.63;;;;;;;;;;5036561;28;20417;-85
2022/05/01 03:53:52;;;;;;;20.85;15.80;;;;;;;;;;5034712;28;20057;-85
2022/05/01 03:56:19;;;;;;;19.92;15.13;;;;;;;;;;5035400;28;20060;-84
2022/05/01 03:58:47;;;;;;;20.85;16.20;;;;;;;;;;5055756;23;20073;-95
2022/05/01 04:01:14;;;;;;;24.13;17.45;;;;;;;;;;5023725;28;20069;-95
2022/05/01 04:03:41;;;;;;;23.58;17.42;;;;;;;;;;5018244;28;20064;-96
2022/05/01 04:06:09;;;;;;;29.67;19.25;;;;;;;;;;5036227;28;20053;-95
2022/05/01 04:08:37;;;;;;;24.02;19.80;;;;;;;;;;5037244;28;20077;-95
2022/05/01 04:11:04;;;;;;;21.27;18.25;;;;;;;;;;5039078;28;20061;-96
2022/05/01 04:13:33;;;;;;;23.10;19.13;;;;;;;;;;5040731;28;20049;-95
2022/05/01 04:16:00;;;;;;;28.98;22.90;;;;;;;;;;5022248;28;20053;-94
2022/05/01 04:18:27;;;;;;;32.65;22.52;;;;;;;;;;5022573;28;20132;-95
2022/05/01 04:20:55;;;;;;;30.48;22.25;;;;;;;;;;5039749;28;20073;-96
2022/05/01 04:23:22;;;;;;;23.25;17.40;;;;;;;;;;5040652;28;20060;-95
2022/05/01 04:25:51;;;;;;;21.15;15.55;;;;;;;;;;5024461;28;20049;-96
2022/05/01 04:28:18;;;;;;;19.02;14.18;;;;;;;;;;5022183;28;20067;-96
2022/05/01 04:30:46;;;;;;;21.05;13.80;;;;;;;;;;5041659;28;20049;-95
2022/05/01 04:33:15;;;;;;;21.27;14.65;;;;;;;;;;5038391;28;20053;-95
2022/05/01 04:35:47;;;;;;;20.83;14.95;;;;;;;;;;5020303;28;20077;-96
2022/05/01 04:38:19;;;;;;;24.10;14.27;;;;;;;;;;5041350;28;20076;-96
2022/05/01 04:40:47;;;;;;;17.08;12.60;;;;;;;;;;5043280;28;20530;-96
2022/05/01 04:43:17;;;;;;;21.13;12.27;;;;;;;;;;5028185;28;20103;-96
2022/05/01 04:45:45;;;;;;;16.50;12.13;;;;;;;;;;5045166;28;20053;-95
2022/05/01 04:48:13;;;;;;;15.90;11.80;;;;;;;;;;5043392;28;20057;-95
2022/05/01 04:50:40;;;;;;;14.52;12.45;;;;;;;;;;5043526;28;20068;-95
2022/05/01 04:53:12;;;;;;;16.73;12.20;;;;;;;;;;5024525;28;20061;-96
2022/05/01 04:55:40;;;;;;;15.15;12.20;;;;;;;;;;5038875;28;20080;-94
2022/05/01 04:58:09;;;;;;;18.42;12.70;;;;;;;;;;5023095;28;20053;-96
2022/05/01 05:00:37;;;;;;;18.10;11.77;;;;;;;;;;5043139;28;20049;-95
2022/05/01 05:03:05;;;;;;;15.50;10.65;;;;;;;;;;5024045;28;20086;-96
2022/05/01 05:05:34;;;;;;;12.32;10.90;;;;;;;;;;5026388;28;20046;-95
2022/05/01 05:10:49;;;;;;;13.55;10.45;;;;;;;;;;5037723;28;20069;-96
2022/05/01 05:13:24;;;;;;;;;;;;;;;;;;5050666;28;20037;-95
2022/05/01 05:15:53;;;;;;;11.63;9.15;;;;;;;;;;5032469;28;20306;-96
2022/05/01 05:18:21;;;;;;;12.00;9.20;;;;;;;;;;5026296;28;20071;-95
2022/05/01 05:20:49;;;;;;;12.23;9.85;;;;;;;;;;5026349;28;20057;-96
2022/05/01 05:23:17;;;;;;;10.82;9.07;;;;;;;;;;5026326;28;20057;-95
2022/05/01 05:25:44;;;;;;;13.15;9.73;;;;;;;;;;5026499;28;20056;-95
2022/05/01 05:28:12;;;;;;;10.23;8.88;;;;;;;;;;5025352;28;20482;-95
2022/05/01 05:30:39;;;;;;;14.65;9.70;;;;;;;;;;5029041;28;20077;-95
2022/05/01 05:33:07;;;;;;;11.68;10.15;;;;;;;;;;5038572;28;20057;-95
2022/05/01 05:35:36;;;;;;;14.85;10.57;;;;;;;;;;5029645;28;20473;-95
2022/05/01 05:38:03;;;;;;;15.30;11.02;;;;;;;;;;5039747;28;20056;-96
2022/05/01 05:40:30;;;;;;;13.43;10.55;;;;;;;;;;5041202;28;20500;-95
2022/05/01 05:42:58;;;;;;;17.23;12.02;;;;;;;;;;5038488;28;20124;-94
2022/05/01 05:45:26;;;;;;;15.85;11.93;;;;;;;;;;5044220;28;20077;-95
2022/05/01 05:47:53;;;;;;;11.57;10.15;;;;;;;;;;5041955;28;20059;-95
2022/05/01 05:50:21;;;;;;;10.82;9.73;;;;;;;;;;5042033;28;20075;-96
2022/05/01 05:52:48;;;;;;;12.20;10.40;;;;;;;;;;5044022;28;20072;-95
2022/05/01 05:55:15;;;;;;;14.00;10.40;;;;;;;;;;5045256;28;20068;-95
2022/05/01 05:57:43;;;;;;;16.75;11.65;;;;;;;;;;5046189;28;20049;-95
2022/05/01 06:00:11;;;;;;;13.65;10.60;;;;;;;;;;5046347;28;20053;-95
2022/05/01 06:02:39;;;;;;;15.07;11.07;;;;;;;;;;5043604;28;20064;-95
2022/05/01 06:05:06;;;;;;;18.35;11.65;;;;;;;;;;5046704;28;20050;-95
2022/05/01 06:07:35;;;;;;;13.43;11.95;;;;;;;;;;5048056;28;20057;-96
2022/05/01 06:10:03;;;;;;;17.45;11.45;;;;;;;;;;5042829;28;20106;-95
2022/05/01 06:12:31;;;;;;;17.27;12.70;;;;;;;;;;5046961;28;20137;-96
2022/05/01 06:14:58;;;;;;;17.77;12.68;;;;;;;;;;5049749;28;20045;-96
2022/05/01 06:17:26;;;;;;;18.35;12.77;;;;;;;;;;5050341;23;20050;-80
2022/05/01 06:19:53;;;;;;;16.55;14.35;;;;;;;;;;5016493;28;20050;-80
2022/05/01 06:22:20;;;;;;;13.55;11.93;;;;;;;;;;5016362;28;20069;-80
2022/05/01 06:24:47;;;;;;;23.10;12.77;;;;;;;;;;5020728;28;20056;-79
2022/05/01 06:27:15;;;;;;;15.73;12.32;;;;;;;;;;5017237;28;20136;-79
2022/05/01 06:29:44;;;;;;;15.43;11.82;;;;;;;;;;5018236;28;20051;-80
2022/05/01 06:32:15;;;;;;;19.00;12.77;;;;;;;;;;5008862;22;20140;-83
2022/05/01 06:34:43;;;;;;;13.63;11.48;;;;;;;;;;4999539;28;20136;-85
2022/05/01 06:37:10;;;;;;;18.13;13.07;;;;;;;;;;5034045;28;20510;-85
2022/05/01 06:39:37;;;;;;;16.23;12.40;;;;;;;;;;5016490;28;20566;-85
2022/05/01 06:42:04;;;;;;;13.52;11.65;;;;;;;;;;5016349;28;20046;-85
2022/05/01 06:44:32;;;;;;;13.70;11.13;;;;;;;;;;5016616;28;20140;-84
2022/05/01 06:46:59;;;;;;;16.02;11.55;;;;;;;;;;5016547;28;20460;-84
2022/05/01 06:49:26;;;;;;;17.25;11.98;;;;;;;;;;5016477;28;20053;-84
2022/05/01 06:51:54;;;;;;;14.07;10.40;;;;;;;;;;5033787;28;20050;-85
2022/05/01 06:54:22;;;;;;;15.82;10.52;;;;;;;;;;5017471;28;20456;-85
2022/05/01 06:56:49;;;;;;;13.75;9.88;;;;;;;;;;5017630;28;20049;-82
2022/05/01 06:59:17;;;;;;;12.77;9.45;;;;;;;;;;5016700;28;20144;-84
2022/05/01 07:01:44;;;;;;;14.52;9.68;;;;;;;;;;5016432;28;20067;-84
2022/05/01 07:04:12;;;;;;;12.07;8.38;;;;;;;;;;5015735;28;20519;-84
2022/05/01 07:06:40;;;;;;;12.90;9.02;;;;;;;;;;5015960;28;20041;-84
2022/05/01 07:09:08;;;;;;;10.80;7.28;;;;;;;;;;5016760;28;20126;-85
2022/05/01 07:11:35;;;;;;;11.18;7.07;;;;;;;;;;5015818;28;20117;-84
2022/05/01 07:14:02;;;;;;;12.20;7.47;;;;;;;;;;5015855;28;20507;-85
2022/05/01 07:16:29;;;;;;;10.68;7.18;;;;;;;;;;5033254;28;20411;-85
2022/05/01 07:18:56;;;;;;;9.82;6.93;;;;;;;;;;5016199;28;20057;-85
2022/05/01 07:21:24;;;;;;;9.43;7.18;;;;;;;;;;5015981;28;20081;-84
2022/05/01 07:23:51;;;;;;;8.27;6.60;;;;;;;;;;5015964;28;20455;-85
2022/05/01 07:26:18;;;;;;;11.38;6.85;;;;;;;;;;5036279;28;20589;-86
2022/05/01 07:28:46;;;;;;;11.05;6.80;;;;;;;;;;5018326;28;20527;-85
2022/05/01 07:31:13;;;;;;;10.57;6.78;;;;;;;;;;5018581;28;20081;-85
2022/05/01 07:33:40;;;;;;;11.57;7.13;;;;;;;;;;5019501;28;20137;-85
2022/05/01 07:36:07;;;;;;;12.85;7.20;;;;;;;;;;5020577;28;20060;-85
2022/05/01 07:38:34;;;;;;;10.15;7.10;;;;;;;;;;5020738;28;20136;-85
2022/05/01 07:41:02;;;;;;;9.43;6.82;;;;;;;;;;5020794;28;20507;-85
2022/05/01 07:43:31;;;;;;;12.95;6.93;;;;;;;;;;5024699;28;20041;-82
2022/05/01 07:45:58;;;;;;;14.13;6.38;;;;;;;;;;5022690;28;20088;-84
2022/05/01 07:48:30;;;;;;;9.82;5.97;;;;;;;;;;5019646;28;20054;-82
2022/05/01 07:50:57;;;;;;;13.52;6.15;;;;;;;;;;5018647;28;20054;-84
2022/05/01 07:53:30;;;;;;;10.68;6.20;;;;;;;;;;5019718;28;20092;-83
2022/05/01 07:55:57;;;;;;;9.35;6.00;;;;;;;;;;5019197;28;20060;-84
2022/05/01 07:58:27;;;;;;;9.75;5.13;;;;;;;;;;5019115;28;20053;-83
2022/05/01 08:00:54;;;;;;;8.10;5.18;;;;;;;;;;5036882;28;20091;-83
2022/05/01 08:06:08;;;;;;;9.48;5.95;;;;;;;;;;5037093;28;20046;-83
2022/05/01 08:08:39;;;;;;;8.63;5.10;;;;;;;;;;5019159;28;20078;-83
2022/05/01 08:11:07;;;;;;;6.13;4.57;;;;;;;;;;5035674;28;20084;-82
2022/05/01 08:13:37;;;;;;;6.63;5.72;;;;;;;;;;5018450;28;20049;-83
2022/05/01 08:16:04;;;;;;;7.00;5.05;;;;;;;;;;5017239;28;20046;-84
2022/05/01 08:21:18;;;;;;;5.47;4.97;;;;;;;;;;5035960;28;20088;-81
2022/05/01 08:23:45;;;;;;;7.43;5.53;;;;;;;;;;5018595;28;20140;-83
2022/05/01 08:26:13;;;;;;;10.30;5.30;;;;;;;;;;5018558;28;20050;-82
2022/05/01 08:28:41;;;;;;;5.60;5.10;;;;;;;;;;5036043;28;20067;-83
2022/05/01 08:31:14;;;;;;;6.60;5.55;;;;;;;;;;5016738;28;20049;-82
2022/05/01 08:33:42;;;;;;;5.97;5.45;;;;;;;;;;5015053;28;20053;-82
2022/05/01 08:36:09;;;;;;;7.70;5.38;;;;;;;;;;5017048;28;20075;-81
2022/05/01 08:38:37;;;;;;;7.25;5.82;;;;;;;;;;5018213;28;20076;-83
2022/05/01 08:41:05;;;;;;;14.13;6.10;;;;;;;;;;5018277;28;20132;-83
2022/05/01 08:43:39;;;;;;;9.77;6.10;;;;;;;;;;5017893;28;20084;-82
2022/05/01 08:46:28;;;;;;;11.35;5.90;;;;;;;;;;5079813;28;20380;-80
2022/05/01 08:49:00;;;;;;;6.85;5.18;;;;;;;;;;5079940;28;20080;-80
2022/05/01 08:51:30;;;;;;;9.63;6.10;;;;;;;;;;5077496;28;20128;-79
2022/05/01 08:53:58;;;;;;;6.07;5.28;;;;;;;;;;5079260;28;20421;-80
2022/05/01 08:56:28;;;;;;;11.77;5.75;;;;;;;;;;5081542;28;20044;-81
2022/05/01 08:58:55;;;;;;;8.73;5.75;;;;;;;;;;5061804;22;20053;-86
2022/05/01 09:01:23;;;;;;;8.70;6.03;;;;;;;;;;5017987;28;20104;-87
2022/05/01 09:03:50;;;;;;;8.57;6.72;;;;;;;;;;5017603;28;20042;-87
2022/05/01 09:06:17;;;;;;;7.00;6.30;;;;;;;;;;5017182;28;20042;-87
2022/05/01 09:08:46;;;;;;;11.13;6.97;;;;;;;;;;5017579;28;20125;-86
2022/05/01 09:14:05;;;;;;;9.75;6.60;;;;;;;;;;5018190;28;20488;-86
2022/05/01 09:16:36;;;;;;;7.28;6.45;;;;;;;;;;5015840;28;20050;-86
2022/05/01 09:19:03;;;;;;;9.18;6.20;;;;;;;;;;5014659;28;20077;-87
2022/05/01 09:21:47;;;;;;;9.60;6.00;;;;;;;;;;5015340;28;20110;-86
2022/05/01 09:24:14;;;;;;;10.07;6.05;;;;;;;;;;5015621;28;20061;-86
2022/05/01 09:26:41;;;;;;;7.15;5.70;;;;;;;;;;5016001;28;20053;-86
2022/05/01 09:29:20;;;;;;;9.23;5.22;;;;;;;;;;5015482;28;20086;-86
2022/05/01 09:31:47;;;;;;;6.25;4.75;;;;;;;;;;5015374;28;20056;-84
2022/05/01 09:34:18;;;;;;;8.05;5.28;;;;;;;;;;5014990;28;20134;-84
2022/05/01 09:36:46;;;;;;;6.25;4.65;;;;;;;;;;5014367;28;20120;-85
2022/05/01 09:39:39;;;;;;;7.15;4.97;;;;;;;;;;5018190;28;20128;-82
2022/05/01 09:42:14;;;;;;;5.78;5.20;;;;;;;;;;5015691;28;20082;-85
2022/05/01 09:44:41;;;;;;;7.50;4.80;;;;;;;;;;5015930;28;20050;-87
2022/05/01 09:47:09;;;;;;;6.93;5.30;;;;;;;;;;5016674;28;20074;-84
2022/05/01 09:49:49;;;;;;;6.18;5.25;;;;;;;;;;5017433;28;20050;-83
2022/05/01 09:52:16;;;;;;;7.32;5.05;;;;;;;;;;5013952;28;20046;-84
2022/05/01 09:55:03;;;;;;;5.32;4.80;;;;;;;;;;5015243;28;20080;-84
2022/05/01 09:57:31;;;;;;;8.63;5.43;;;;;;;;;;5003542;28;20523;-85
2022/05/01 09:59:59;;;;;;;5.38;4.65;;;;;;;;;;5003423;28;20085;-85
2022/05/01 10:02:29;;;;;;;8.15;4.90;;;;;;;;;;5011038;22;20046;-82
2022/05/01 10:05:02;;;;;;;7.10;5.28;;;;;;;;;;4995509;28;20555;-80
2022/05/01 10:07:38;;;;;;;10.60;5.47;;;;;;;;;;4997020;28;20047;-83
2022/05/01 10:10:09;;;;;;;11.32;7.13;;;;;;;;;;4996770;28;20074;-86
2022/05/01 10:12:42;;;;;;;7.65;5.30;;;;;;;;;;4997589;28;20069;-80
2022/05/01 10:15:10;;;;;;;7.82;4.47;;;;;;;;;;4996705;28;20315;-80
2022/05/01 10:17:42;;;;;;;5.85;4.72;;;;;;;;;;4996854;28;20422;-80
2022/05/01 10:20:09;;;;;;;5.63;4.80;;;;;;;;;;4996997;28;20558;-82
2022/05/01 10:22:37;;;;;;;8.07;4.90;;;;;;;;;;4997285;28;20070;-83
2022/05/01 10:25:08;;;;;;;8.93;5.28;;;;;;;;;;4997430;28;20066;-83
2022/05/01 10:27:55;;;;;;;5.22;4.50;;;;;;;;;;4997516;28;20078;-82
2022/05/01 10:33:22;;;;;;;9.00;4.22;;;;;;;;;;4999253;28;20046;-82
2022/05/01 10:35:58;;;;;;;8.40;5.05;;;;;;;;;;5000544;28;20133;-83
2022/05/01 10:38:45;;;;;;;6.68;3.97;;;;;;;;;;4995170;28;20050;-81
2022/05/01 10:41:12;;;;;;;6.15;4.45;;;;;;;;;;4998458;28;20138;-83
2022/05/01 10:43:57;;;;;;;5.10;4.25;;;;;;;;;;4999084;28;20419;-82
2022/05/01 10:46:27;;;;;;;5.10;4.60;;;;;;;;;;4999443;28;20092;-83
2022/05/01 10:49:01;;;;;;;7.03;4.65;;;;;;;;;;5000299;28;20444;-85
2022/05/01 10:51:36;;;;;;;;;;;;;;;;;;5002479;28;20074;-81
2022/05/01 10:54:19;;;;;;;6.28;4.45;;;;;;;;;;5000170;28;19925;-82
2022/05/01 10:56:50;;;;;;;9.50;5.23;;;;;;;;;;5015169;28;20046;-82
2022/05/01 10:59:35;;;;;;;6.47;4.90;;;;;;;;;;4983345;28;20046;-83
2022/05/01 11:02:19;;;;;;;10.93;5.60;;;;;;;;;;4983380;28;20047;-82
2022/05/01 11:04:47;;;;;;;9.65;4.85;;;;;;;;;;4979706;28;20074;-83
2022/05/01 11:07:18;;;;;;;8.15;5.43;;;;;;;;;;4979226;28;20135;-81
2022/05/01 11:09:47;;;;;;;6.10;5.05;;;;;;;;;;4980953;28;20047;-82
2022/05/01 11:12:19;;;;;;;8.55;4.65;;;;;;;;;;4999867;28;21128;-84
2022/05/01 11:14:51;;;;;;;9.90;5.05;;;;;;;;;;5000571;28;20077;-84
2022/05/01 11:17:36;;;;;;;7.30;5.13;;;;;;;;;;5001447;28;20078;-84
2022/05/01 11:20:24;;;;;;;8.98;5.57;;;;;;;;;;5001561;28;20061;-82
2022/05/01 11:22:51;;;;;;;7.60;5.38;;;;;;;;;;5002034;28;20100;-84
2022/05/01 11:25:31;;;;;;;6.00;4.63;;;;;;;;;;5009253;28;20094;-83
2022/05/01 11:27:59;;;;;;;7.68;5.10;;;;;;;;;;5002111;28;20050;-82
2022/05/01 11:30:31;;;;;;;7.35;5.03;;;;;;;;;;4998948;28;20476;-82
2022/05/01 11:33:01;;;;;;;7.10;5.13;;;;;;;;;;4999954;28;20088;-84
2022/05/01 11:35:47;;;;;;;9.10;5.25;;;;;;;;;;5003235;28;20047;-82
2022/05/01 11:38:14;;;;;;;7.80;5.10;;;;;;;;;;5000210;28;20503;-82
2022/05/01 11:40:52;;;;;;;6.88;4.72;;;;;;;;;;4999086;28;20070;-82
2022/05/01 11:43:20;;;;;;;5.32;4.75;;;;;;;;;;4996052;28;20066;-81
2022/05/01 11:45:49;;;;;;;5.57;4.55;;;;;;;;;;4996187;28;20073;-81
2022/05/01 11:48:17;;;;;;;5.95;4.55;;;;;;;;;;4996284;28;20050;-80
2022/05/01 11:50:45;;;;;;;4.78;4.38;;;;;;;;;;4996565;28;20440;-82
2022/05/01 11:53:17;;;;;;;6.95;4.90;;;;;;;;;;4996726;28;20136;-80
2022/05/01 12:04:47;;;;;;;5.90;4.60;;;;;;;;;;4997373;28;20054;-79
2022/05/01 12:07:15;;;;;;;6.10;4.90;;;;;;;;;;4923380;29;20449;-82
2022/05/01 12:09:43;;;;;;;8.57;5.35;;;;;;;;;;4919046;29;20056;-83
2022/05/01 12:12:12;;;;;;;5.82;5.00;;;;;;;;;;4955227;28;20054;-82
2022/05/01 12:14:40;;;;;;;7.75;5.05;;;;;;;;;;4994125;28;20054;-81
2022/05/01 12:17:08;;;;;;;7.50;5.22;;;;;;;;;;4994318;28;20046;-83
2022/05/01 12:19:35;;;;;;;8.73;5.05;;;;;;;;;;4993204;28;20062;-83
2022/05/01 12:22:03;;;;;;;7.30;5.10;;;;;;;;;;4994176;28;20122;-83
2022/05/01 12:24:30;;;;;;;6.65;5.10;;;;;;;;;;4995558;28;20109;-83
2022/05/01 12:26:58;;;;;;;7.25;5.22;;;;;;;;;;4993810;28;20046;-82
2022/05/01 12:29:25;;;;;;;6.63;4.75;;;;;;;;;;4994309;28;20137;-83
2022/05/01 12:31:59;;;;;;;6.00;4.72;;;;;;;;;;4993437;28;20137;-81
2022/05/01 12:34:27;;;;;;;10.13;5.00;;;;;;;;;;4993293;28;20077;-81
2022/05/01 12:36:54;;;;;;;5.85;5.10;;;;;;;;;;4993731;28;20100;-83
2022/05/01 12:39:22;;;;;;;8.55;5.13;;;;;;;;;;4993939;28;20053;-81
2022/05/01 12:45:02;;;;;;;5.70;4.60;;;;;;;;;;4994676;28;20116;-83
2022/05/01 12:47:33;;;;;;;10.18;4.85;;;;;;;;;;4994798;28;20070;-81
2022/05/01 12:50:02;;;;;;;6.43;4.45;;;;;;;;;;4993538;28;20425;-80
2022/05/01 12:52:33;;;;;;;6.65;4.72;;;;;;;;;;4993538;28;20051;-82
2022/05/01 12:55:14;;;;;;;8.23;5.25;;;;;;;;;;4993307;28;20500;-82
2022/05/01 12:57:43;;;;;;;6.80;4.60;;;;;;;;;;4993108;28;20072;-82
2022/05/01 13:00:10;;;;;;;9.07;5.18;;;;;;;;;;4992947;28;20050;-81
2022/05/01 13:02:38;;;;;;;5.93;4.30;;;;;;;;;;4993194;28;20051;-83
2022/05/01 13:05:07;;;;;;;7.00;4.78;;;;;;;;;;4992462;28;20053;-82
2022/05/01 13:07:38;;;;;;;5.65;4.80;;;;;;;;;;4993283;28;20058;-81
2022/05/01 13:10:05;;;;;;;6.75;5.13;;;;;;;;;;4992988;28;20050;-81
2022/05/01 13:12:37;;;;;;;6.00;4.30;;;;;;;;;;4993046;28;20082;-81
2022/05/01 13:15:04;;;;;;;6.00;4.70;;;;;;;;;;4992868;28;20121;-81
2022/05/01 13:17:32;;;;;;;6.05;4.32;;;;;;;;;;4993039;28;20486;-80
2022/05/01 13:20:01;;;;;;;6.65;4.20;;;;;;;;;;4992320;28;20046;-82
2022/05/01 13:22:28;;;;;;;7.15;4.60;;;;;;;;;;4993363;28;20138;-80
2022/05/01 13:24:57;;;;;;;8.55;4.20;;;;;;;;;;4992053;28;20402;-80
2022/05/01 13:27:25;;;;;;;6.15;4.03;;;;;;;;;;4992098;28;20053;-79
2022/05/01 13:29:52;;;;;;;5.57;4.18;;;;;;;;;;4994144;28;20077;-81
2022/05/01 13:32:19;;;;;;;6.25;4.28;;;;;;;;;;4999433;28;20088;-80
2022/05/01 13:34:47;;;;;;;7.15;4.35;;;;;;;;;;4998268;28;20411;-80
2022/05/01 13:37:14;;;;;;;6.15;4.00;;;;;;;;;;5000450;28;20164;-83
2022/05/01 13:45:14;;;;;;;4.05;3.35;;;;;;;;;;4998548;28;20058;-83
2022/05/01 13:47:42;;;;;;;4.47;4.05;;;;;;;;;;4998043;28;20154;-81
2022/05/01 13:50:09;;;;;;;6.38;3.80;;;;;;;;;;4997717;28;20129;-83
2022/05/01 13:52:37;;;;;;;3.85;3.47;;;;;;;;;;4997832;28;20141;-83
2022/05/01 13:55:04;;;;;;;5.85;3.72;;;;;;;;;;4997089;28;20133;-80
2022/05/01 13:57:31;;;;;;;3.58;3.28;;;;;;;;;;4998313;28;20101;-83
2022/05/01 13:59:59;;;;;;;5.22;3.70;;;;;;;;;;4997715;28;20120;-83
2022/05/01 14:02:26;;;;;;;5.47;3.28;;;;;;;;;;4999385;28;20046;-84
2022/05/01 14:04:54;;;;;;;5.38;3.58;;;;;;;;;;4998621;28;20051;-83
2022/05/01 14:07:21;;;;;;;8.00;4.50;;;;;;;;;;4998935;28;20121;-84
2022/05/01 14:09:49;;;;;;;6.85;3.65;;;;;;;;;;4999257;28;20550;-84
2022/05/01 14:12:17;;;;;;;6.85;3.80;;;;;;;;;;4998242;28;20053;-82
2022/05/01 14:14:46;;;;;;;4.25;3.72;;;;;;;;;;4999046;28;20427;-84
2022/05/01 14:17:14;;;;;;;6.07;3.60;;;;;;;;;;4997259;28;20065;-85
2022/05/01 14:19:42;;;;;;;4.20;3.80;;;;;;;;;;4995749;28;20046;-84
2022/05/01 14:22:12;;;;;;;3.80;3.05;;;;;;;;;;4997724;28;20061;-83
2022/05/01 14:24:49;;;;;;;8.10;3.45;;;;;;;;;;4996090;28;20060;-83
2022/05/01 14:27:16;;;;;;;6.03;3.80;;;;;;;;;;4998556;28;20092;-82
2022/05/01 14:29:43;;;;;;;5.18;3.55;;;;;;;;;;4998291;28;20070;-81
2022/05/01 14:32:27;;;;;;;5.57;3.75;;;;;;;;;;4996912;28;20733;-81
2022/05/01 14:35:03;;;;;;;6.85;3.63;;;;;;;;;;4995770;28;20419;-83
2022/05/01 14:37:30;;;;;;;7.72;3.95;;;;;;;;;;4994286;28;20109;-82
2022/05/01 14:40:00;;;;;;;5.93;3.50;;;;;;;;;;4995623;28;20459;-82
2022/05/01 14:42:31;;;;;;;10.57;4.00;;;;;;;;;;4995652;28;20141;-81
2022/05/01 14:45:06;;;;;;;4.88;3.42;;;;;;;;;;4996016;28;20046;-81
2022/05/01 14:47:51;;;;;;;4.35;3.13;;;;;;;;;;4999904;28;20475;-83
2022/05/01 14:50:19;;;;;;;6.68;3.30;;;;;;;;;;4999991;28;20081;-84
2022/05/01 14:52:50;;;;;;;4.05;3.28;;;;;;;;;;5001550;28;20451;-83
2022/05/01 14:55:20;;;;;;;6.13;3.30;;;;;;;;;;5002346;28;20078;-84
2022/05/01 14:57:48;;;;;;;5.53;3.30;;;;;;;;;;5000485;28;20582;-84
2022/05/01 15:06:17;;;;;;;5.45;3.65;;;;;;;;;;5002335;28;20196;-84
2022/05/01 15:08:42;;;;;;;4.43;4.00;;;;;;;;;;5002561;28;20042;-85
2022/05/01 15:11:10;;;;;;;5.03;3.55;;;;;;;;;;5000726;28;20054;-85
2022/05/01 15:13:37;;;;;;;6.28;3.33;;;;;;;;;;5002797;28;20129;-84
2022/05/01 15:16:09;;;;;;;5.65;3.28;;;;;;;;;;5005266;28;20054;-85
2022/05/01 15:18:56;;;;;;;4.35;3.10;;;;;;;;;;5006847;28;20551;-86
2022/05/01 15:24:32;;;;;;;5.45;3.42;;;;;;;;;;5000189;28;20531;-84
2022/05/01 15:27:11;;;;;;;6.68;3.63;;;;;;;;;;4998181;28;20077;-84
2022/05/01 15:29:44;;;;;;;11.70;4.10;;;;;;;;;;5000340;28;20061;-84
2022/05/01 15:32:20;;;;;;;9.48;7.57;;;;;;;;;;5000005;28;20108;-85
2022/05/01 15:34:50;;;;;;;6.13;4.90;;;;;;;;;;5000009;28;20068;-85
2022/05/01 15:37:18;;;;;;;16.30;12.07;;;;;;;;;;5000642;28;20054;-85
2022/05/01 15:39:58;;;;;;;10.57;8.82;;;;;;;;;;4999478;28;20054;-85
2022/05/01 15:42:25;;;;;;;5.75;4.90;;;;;;;;;;4999882;28;20050;-84
2022/05/01 15:44:53;;;;;;;8.13;4.28;;;;;;;;;;4999801;28;20054;-85
2022/05/01 15:47:29;;;;;;;6.25;4.30;;;;;;;;;;4999101;28;20105;-85
2022/05/01 15:55:29;;;;;;;5.90;5.32;;;;;;;;;;4998680;28;20097;-85
2022/05/01 15:58:02;;;;;;;4.40;3.50;;;;;;;;;;4998628;28;20050;-85